sensor_id;sensor_type;location;lat;lon;timestamp;temperature;humidity
8664;DHT22;4369;47.842;13.096;2023-05-23T00:01:05;16.50;1.00
8664;DHT22;4369;47.842;13.096;2023-05-23T00:03:33;16.40;1.00
8664;DHT22;4369;47.842;13.096;2023-05-23T00:06:00;16.40;1.00
8664;DHT22;4369;47.842;13.096;2023-05-23T00:08:29;16.30;1.00
8664;DHT22;4369;47.842;13.096;2023-05-23T00:10:57;16.30;1.00
8664;DHT22;4369;47.842;13.096;2023-05-23T00:13:24;16.30;1.00
8664;DHT22;4369;47.842;13.096;2023-05-23T00:15:51;16.20;1.00
8664;DHT22;4369;47.842;13.096;2023-05-23T00:18:18;16.20;1.00
8664;DHT22;4369;47.842;13.096;2023-05-23T00:20:45;16.20;1.00
8664;DHT22;4369;47.842;13.096;2023-05-23T00:23:12;16.20;1.00
8664;DHT22;4369;47.842;13.096;2023-05-23T00:25:44;16.10;1.00
8664;DHT22;4369;47.842;13.096;2023-05-23T00:28:14;16.00;1.00
8664;DHT22;4369;47.842;13.096;2023-05-23T00:30:42;16.00;1.00
8664;DHT22;4369;47.842;13.096;2023-05-23T00:33:09;16.00;1.00
8664;DHT22;4369;47.842;13.096;2023-05-23T00:35:39;16.00;1.00
8664;DHT22;4369;47.842;13.096;2023-05-23T00:38:06;15.90;1.00
8664;DHT22;4369;47.842;13.096;2023-05-23T00:40:33;15.90;1.00
8664;DHT22;4369;47.842;13.096;2023-05-23T00:43:00;15.90;1.00
8664;DHT22;4369;47.842;13.096;2023-05-23T00:45:28;15.80;1.00
8664;DHT22;4369;47.842;13.096;2023-05-23T00:47:56;15.80;1.00
8664;DHT22;4369;47.842;13.096;2023-05-23T00:50:23;15.70;1.00
8664;DHT22;4369;47.842;13.096;2023-05-23T00:52:55;15.70;20.00
8664;DHT22;4369;47.842;13.096;2023-05-23T00:55:23;15.70;31.30
8664;DHT22;4369;47.842;13.096;2023-05-23T00:57:51;15.70;54.30
8664;DHT22;4369;47.842;13.096;2023-05-23T01:00:20;15.70;55.10
8664;DHT22;4369;47.842;13.096;2023-05-23T01:02:49;15.70;59.10
8664;DHT22;4369;47.842;13.096;2023-05-23T01:05:17;15.60;67.50
8664;DHT22;4369;47.842;13.096;2023-05-23T01:07:47;15.60;81.90
8664;DHT22;4369;47.842;13.096;2023-05-23T01:10:16;15.60;91.90
8664;DHT22;4369;47.842;13.096;2023-05-23T01:12:50;15.60;97.90
8664;DHT22;4369;47.842;13.096;2023-05-23T01:15:21;15.50;99.50
8664;DHT22;4369;47.842;13.096;2023-05-23T01:17:54;15.50;99.90
8664;DHT22;4369;47.842;13.096;2023-05-23T01:20:27;15.40;99.90
8664;DHT22;4369;47.842;13.096;2023-05-23T01:26:12;15.40;99.90
8664;DHT22;4369;47.842;13.096;2023-05-23T01:28:45;15.40;99.90
8664;DHT22;4369;47.842;13.096;2023-05-23T01:31:12;15.40;99.90
8664;DHT22;4369;47.842;13.096;2023-05-23T01:33:42;15.40;99.90
8664;DHT22;4369;47.842;13.096;2023-05-23T01:36:12;15.30;99.90
8664;DHT22;4369;47.842;13.096;2023-05-23T01:38:39;15.40;99.90
8664;DHT22;4369;47.842;13.096;2023-05-23T01:41:06;15.30;99.90
8664;DHT22;4369;47.842;13.096;2023-05-23T01:43:33;15.40;99.90
8664;DHT22;4369;47.842;13.096;2023-05-23T01:46:02;15.40;99.90
8664;DHT22;4369;47.842;13.096;2023-05-23T01:48:30;15.40;99.90
8664;DHT22;4369;47.842;13.096;2023-05-23T01:50:57;15.40;99.90
8664;DHT22;4369;47.842;13.096;2023-05-23T01:53:25;15.40;99.90
8664;DHT22;4369;47.842;13.096;2023-05-23T01:55:52;15.40;99.90
8664;DHT22;4369;47.842;13.096;2023-05-23T01:58:19;15.40;99.90
8664;DHT22;4369;47.842;13.096;2023-05-23T02:00:46;15.40;99.90
8664;DHT22;4369;47.842;13.096;2023-05-23T02:03:15;15.40;99.90
8664;DHT22;4369;47.842;13.096;2023-05-23T02:05:42;15.40;99.90
8664;DHT22;4369;47.842;13.096;2023-05-23T02:08:09;15.40;99.90
8664;DHT22;4369;47.842;13.096;2023-05-23T02:10:36;15.40;99.90
8664;DHT22;4369;47.842;13.096;2023-05-23T02:13:03;15.40;99.90
8664;DHT22;4369;47.842;13.096;2023-05-23T02:15:30;15.40;99.90
8664;DHT22;4369;47.842;13.096;2023-05-23T02:17:57;15.50;99.90
8664;DHT22;4369;47.842;13.096;2023-05-23T02:20:25;15.50;99.90
8664;DHT22;4369;47.842;13.096;2023-05-23T02:22:52;15.50;99.90
8664;DHT22;4369;47.842;13.096;2023-05-23T02:25:19;15.50;99.90
8664;DHT22;4369;47.842;13.096;2023-05-23T02:27:45;15.50;99.90
8664;DHT22;4369;47.842;13.096;2023-05-23T02:30:13;15.50;99.90
8664;DHT22;4369;47.842;13.096;2023-05-23T02:32:40;15.40;99.90
8664;DHT22;4369;47.842;13.096;2023-05-23T02:35:07;15.30;99.90
8664;DHT22;4369;47.842;13.096;2023-05-23T02:37:36;15.30;99.90
8664;DHT22;4369;47.842;13.096;2023-05-23T02:40:03;15.30;99.90
8664;DHT22;4369;47.842;13.096;2023-05-23T02:42:32;15.30;99.90
8664;DHT22;4369;47.842;13.096;2023-05-23T02:44:58;15.30;99.90
8664;DHT22;4369;47.842;13.096;2023-05-23T02:47:26;15.30;99.90
8664;DHT22;4369;47.842;13.096;2023-05-23T02:49:52;15.20;99.90
8664;DHT22;4369;47.842;13.096;2023-05-23T02:52:19;15.20;99.90
8664;DHT22;4369;47.842;13.096;2023-05-23T02:54:47;15.30;99.90
8664;DHT22;4369;47.842;13.096;2023-05-23T02:57:14;15.30;99.90
8664;DHT22;4369;47.842;13.096;2023-05-23T02:59:41;15.30;99.90
8664;DHT22;4369;47.842;13.096;2023-05-23T03:02:08;15.20;99.90
8664;DHT22;4369;47.842;13.096;2023-05-23T03:04:35;15.20;99.90
8664;DHT22;4369;47.842;13.096;2023-05-23T03:07:02;15.20;99.90
8664;DHT22;4369;47.842;13.096;2023-05-23T03:09:30;15.10;99.90
8664;DHT22;4369;47.842;13.096;2023-05-23T03:11:59;15.10;99.90
8664;DHT22;4369;47.842;13.096;2023-05-23T03:14:25;15.10;99.90
8664;DHT22;4369;47.842;13.096;2023-05-23T03:16:52;15.10;99.90
8664;DHT22;4369;47.842;13.096;2023-05-23T03:19:19;15.10;99.90
8664;DHT22;4369;47.842;13.096;2023-05-23T03:21:46;15.00;99.90
8664;DHT22;4369;47.842;13.096;2023-05-23T03:24:14;15.00;99.90
8664;DHT22;4369;47.842;13.096;2023-05-23T03:26:41;14.90;99.90
8664;DHT22;4369;47.842;13.096;2023-05-23T03:29:09;14.80;99.90
8664;DHT22;4369;47.842;13.096;2023-05-23T03:31:36;14.80;99.90
8664;DHT22;4369;47.842;13.096;2023-05-23T03:34:03;14.80;99.90
8664;DHT22;4369;47.842;13.096;2023-05-23T03:36:31;14.80;99.90
8664;DHT22;4369;47.842;13.096;2023-05-23T03:38:58;14.80;99.90
8664;DHT22;4369;47.842;13.096;2023-05-23T03:41:25;14.80;99.90
8664;DHT22;4369;47.842;13.096;2023-05-23T03:43:52;14.80;99.90
8664;DHT22;4369;47.842;13.096;2023-05-23T03:46:20;14.80;99.90
8664;DHT22;4369;47.842;13.096;2023-05-23T03:48:47;14.80;99.90
8664;DHT22;4369;47.842;13.096;2023-05-23T03:51:16;14.80;99.90
8664;DHT22;4369;47.842;13.096;2023-05-23T03:53:42;14.80;99.90
8664;DHT22;4369;47.842;13.096;2023-05-23T03:56:09;14.90;99.90
8664;DHT22;4369;47.842;13.096;2023-05-23T03:58:36;15.00;99.90
8664;DHT22;4369;47.842;13.096;2023-05-23T04:01:03;15.00;99.90
8664;DHT22;4369;47.842;13.096;2023-05-23T04:03:31;15.00;99.90
8664;DHT22;4369;47.842;13.096;2023-05-23T04:05:59;15.00;99.90
8664;DHT22;4369;47.842;13.096;2023-05-23T04:08:26;15.00;99.90
8664;DHT22;4369;47.842;13.096;2023-05-23T04:10:54;15.00;99.90
8664;DHT22;4369;47.842;13.096;2023-05-23T04:13:21;15.10;99.90
8664;DHT22;4369;47.842;13.096;2023-05-23T04:15:49;15.10;99.90
8664;DHT22;4369;47.842;13.096;2023-05-23T04:18:17;15.10;99.90
8664;DHT22;4369;47.842;13.096;2023-05-23T04:20:45;15.20;99.90
8664;DHT22;4369;47.842;13.096;2023-05-23T04:23:12;15.20;99.90
8664;DHT22;4369;47.842;13.096;2023-05-23T04:25:39;15.20;99.90
8664;DHT22;4369;47.842;13.096;2023-05-23T04:28:06;15.30;99.90
8664;DHT22;4369;47.842;13.096;2023-05-23T04:30:34;15.40;99.90
8664;DHT22;4369;47.842;13.096;2023-05-23T04:33:02;15.40;99.90
8664;DHT22;4369;47.842;13.096;2023-05-23T04:35:29;15.40;99.90
8664;DHT22;4369;47.842;13.096;2023-05-23T04:38:00;15.50;99.90
8664;DHT22;4369;47.842;13.096;2023-05-23T04:40:28;15.60;99.90
8664;DHT22;4369;47.842;13.096;2023-05-23T04:42:55;15.70;99.90
8664;DHT22;4369;47.842;13.096;2023-05-23T04:45:22;15.80;99.90
8664;DHT22;4369;47.842;13.096;2023-05-23T04:47:51;15.90;99.90
8664;DHT22;4369;47.842;13.096;2023-05-23T04:50:19;16.00;99.90
8664;DHT22;4369;47.842;13.096;2023-05-23T04:52:47;16.10;99.90
8664;DHT22;4369;47.842;13.096;2023-05-23T04:55:15;16.10;99.90
8664;DHT22;4369;47.842;13.096;2023-05-23T04:57:42;16.20;99.90
8664;DHT22;4369;47.842;13.096;2023-05-23T05:00:10;16.30;99.90
8664;DHT22;4369;47.842;13.096;2023-05-23T05:02:38;16.40;99.90
8664;DHT22;4369;47.842;13.096;2023-05-23T05:05:05;16.50;99.90
8664;DHT22;4369;47.842;13.096;2023-05-23T05:07:32;16.60;99.90
8664;DHT22;4369;47.842;13.096;2023-05-23T05:10:00;16.60;99.90
8664;DHT22;4369;47.842;13.096;2023-05-23T05:12:28;16.80;99.90
8664;DHT22;4369;47.842;13.096;2023-05-23T05:14:55;16.80;99.90
8664;DHT22;4369;47.842;13.096;2023-05-23T05:17:22;16.90;99.90
8664;DHT22;4369;47.842;13.096;2023-05-23T05:19:49;16.90;99.90
8664;DHT22;4369;47.842;13.096;2023-05-23T05:22:16;17.00;99.90
8664;DHT22;4369;47.842;13.096;2023-05-23T05:24:43;17.10;99.90
8664;DHT22;4369;47.842;13.096;2023-05-23T05:27:09;17.20;99.90
8664;DHT22;4369;47.842;13.096;2023-05-23T05:29:38;17.20;94.70
8664;DHT22;4369;47.842;13.096;2023-05-23T05:32:05;17.30;93.40
8664;DHT22;4369;47.842;13.096;2023-05-23T05:34:33;17.30;91.40
8664;DHT22;4369;47.842;13.096;2023-05-23T05:37:02;17.40;97.50
8664;DHT22;4369;47.842;13.096;2023-05-23T05:39:29;17.50;84.90
8664;DHT22;4369;47.842;13.096;2023-05-23T05:41:56;17.60;70.20
8664;DHT22;4369;47.842;13.096;2023-05-23T05:44:22;17.80;56.80
8664;DHT22;4369;47.842;13.096;2023-05-23T05:46:51;17.90;53.50
8664;DHT22;4369;47.842;13.096;2023-05-23T05:49:18;17.90;45.10
8664;DHT22;4369;47.842;13.096;2023-05-23T05:51:44;18.00;75.30
8664;DHT22;4369;47.842;13.096;2023-05-23T05:54:11;18.10;84.50
8664;DHT22;4369;47.842;13.096;2023-05-23T05:56:38;18.20;87.90
8664;DHT22;4369;47.842;13.096;2023-05-23T05:59:06;18.30;94.40
8664;DHT22;4369;47.842;13.096;2023-05-23T06:01:33;18.40;99.90
8664;DHT22;4369;47.842;13.096;2023-05-23T06:04:01;18.50;99.90
8664;DHT22;4369;47.842;13.096;2023-05-23T06:06:28;18.60;99.90
8664;DHT22;4369;47.842;13.096;2023-05-23T06:08:56;18.70;99.90
8664;DHT22;4369;47.842;13.096;2023-05-23T06:11:23;18.80;99.90
8664;DHT22;4369;47.842;13.096;2023-05-23T06:13:51;18.80;99.90
8664;DHT22;4369;47.842;13.096;2023-05-23T06:16:19;18.80;96.90
8664;DHT22;4369;47.842;13.096;2023-05-23T06:18:46;18.90;95.90
8664;DHT22;4369;47.842;13.096;2023-05-23T06:21:14;18.90;74.40
8664;DHT22;4369;47.842;13.096;2023-05-23T06:23:41;18.90;73.50
8664;DHT22;4369;47.842;13.096;2023-05-23T06:26:07;18.90;53.00
8664;DHT22;4369;47.842;13.096;2023-05-23T06:28:36;18.90;96.80
8664;DHT22;4369;47.842;13.096;2023-05-23T06:31:03;18.90;99.90
8664;DHT22;4369;47.842;13.096;2023-05-23T06:33:30;18.80;63.10
8664;DHT22;4369;47.842;13.096;2023-05-23T06:35:57;18.80;73.70
8664;DHT22;4369;47.842;13.096;2023-05-23T06:38:28;18.70;81.40
8664;DHT22;4369;47.842;13.096;2023-05-23T06:40:55;18.80;62.00
8664;DHT22;4369;47.842;13.096;2023-05-23T06:43:21;18.80;90.00
8664;DHT22;4369;47.842;13.096;2023-05-23T06:45:49;18.80;62.10
8664;DHT22;4369;47.842;13.096;2023-05-23T06:48:15;18.80;75.10
8664;DHT22;4369;47.842;13.096;2023-05-23T06:50:42;18.90;64.60
8664;DHT22;4369;47.842;13.096;2023-05-23T06:53:09;18.90;57.80
8664;DHT22;4369;47.842;13.096;2023-05-23T06:55:37;18.90;55.60
8664;DHT22;4369;47.842;13.096;2023-05-23T06:58:04;18.80;78.10
8664;DHT22;4369;47.842;13.096;2023-05-23T07:00:31;18.80;82.40
8664;DHT22;4369;47.842;13.096;2023-05-23T07:02:58;18.90;80.50
8664;DHT22;4369;47.842;13.096;2023-05-23T07:05:26;18.90;76.10
8664;DHT22;4369;47.842;13.096;2023-05-23T07:07:53;18.80;58.60
8664;DHT22;4369;47.842;13.096;2023-05-23T07:10:21;18.80;69.60
8664;DHT22;4369;47.842;13.096;2023-05-23T07:12:50;19.00;62.30
8664;DHT22;4369;47.842;13.096;2023-05-23T07:15:17;19.20;59.20
8664;DHT22;4369;47.842;13.096;2023-05-23T07:17:43;19.40;66.30
8664;DHT22;4369;47.842;13.096;2023-05-23T07:20:10;19.40;53.50
8664;DHT22;4369;47.842;13.096;2023-05-23T07:22:37;19.40;33.60
8664;DHT22;4369;47.842;13.096;2023-05-23T07:25:05;19.50;38.30
8664;DHT22;4369;47.842;13.096;2023-05-23T07:27:32;19.50;42.70
8664;DHT22;4369;47.842;13.096;2023-05-23T07:30:01;19.50;44.30
8664;DHT22;4369;47.842;13.096;2023-05-23T07:32:28;19.50;35.00
8664;DHT22;4369;47.842;13.096;2023-05-23T07:34:55;19.50;51.90
8664;DHT22;4369;47.842;13.096;2023-05-23T07:37:22;19.50;29.10
8664;DHT22;4369;47.842;13.096;2023-05-23T07:39:49;19.50;45.00
8664;DHT22;4369;47.842;13.096;2023-05-23T07:42:16;19.50;1.00
8664;DHT22;4369;47.842;13.096;2023-05-23T07:44:43;19.40;1.00
8664;DHT22;4369;47.842;13.096;2023-05-23T07:47:11;19.50;1.00
8664;DHT22;4369;47.842;13.096;2023-05-23T07:49:38;19.40;1.00
8664;DHT22;4369;47.842;13.096;2023-05-23T07:52:05;19.50;1.00
8664;DHT22;4369;47.842;13.096;2023-05-23T07:54:31;19.80;1.00
8664;DHT22;4369;47.842;13.096;2023-05-23T07:56:58;20.00;1.00
8664;DHT22;4369;47.842;13.096;2023-05-23T07:59:25;20.20;1.00
8664;DHT22;4369;47.842;13.096;2023-05-23T08:01:52;20.50;1.00
8664;DHT22;4369;47.842;13.096;2023-05-23T08:04:20;20.60;36.90
8664;DHT22;4369;47.842;13.096;2023-05-23T08:06:47;20.60;1.00
8664;DHT22;4369;47.842;13.096;2023-05-23T08:09:14;20.40;99.90
8664;DHT22;4369;47.842;13.096;2023-05-23T08:11:41;20.30;99.90
8664;DHT22;4369;47.842;13.096;2023-05-23T08:14:08;20.30;1.00
8664;DHT22;4369;47.842;13.096;2023-05-23T08:16:35;20.50;1.00
8664;DHT22;4369;47.842;13.096;2023-05-23T08:19:02;20.70;99.90
8664;DHT22;4369;47.842;13.096;2023-05-23T08:21:30;20.90;99.90
8664;DHT22;4369;47.842;13.096;2023-05-23T08:23:58;21.10;99.90
8664;DHT22;4369;47.842;13.096;2023-05-23T08:26:25;21.10;1.00
8664;DHT22;4369;47.842;13.096;2023-05-23T08:28:59;21.30;1.00
8664;DHT22;4369;47.842;13.096;2023-05-23T08:31:26;21.40;1.00
8664;DHT22;4369;47.842;13.096;2023-05-23T08:33:53;21.70;1.00
8664;DHT22;4369;47.842;13.096;2023-05-23T08:36:20;21.70;1.00
8664;DHT22;4369;47.842;13.096;2023-05-23T08:38:49;21.60;1.00
8664;DHT22;4369;47.842;13.096;2023-05-23T08:41:18;21.40;99.90
8664;DHT22;4369;47.842;13.096;2023-05-23T08:43:45;21.20;1.00
8664;DHT22;4369;47.842;13.096;2023-05-23T08:46:12;21.30;1.00
8664;DHT22;4369;47.842;13.096;2023-05-23T08:48:41;21.50;1.00
8664;DHT22;4369;47.842;13.096;2023-05-23T08:51:08;21.80;1.00
8664;DHT22;4369;47.842;13.096;2023-05-23T08:53:37;22.30;99.90
8664;DHT22;4369;47.842;13.096;2023-05-23T08:56:09;22.50;99.90
8664;DHT22;4369;47.842;13.096;2023-05-23T08:58:36;22.50;99.90
8664;DHT22;4369;47.842;13.096;2023-05-23T09:01:05;22.50;99.90
8664;DHT22;4369;47.842;13.096;2023-05-23T09:03:32;22.20;99.90
8664;DHT22;4369;47.842;13.096;2023-05-23T09:06:02;21.80;99.90
8664;DHT22;4369;47.842;13.096;2023-05-23T09:08:29;21.40;99.90
8664;DHT22;4369;47.842;13.096;2023-05-23T09:10:56;20.90;99.90
8664;DHT22;4369;47.842;13.096;2023-05-23T09:13:24;20.70;99.90
8664;DHT22;4369;47.842;13.096;2023-05-23T09:15:57;20.60;99.90
8664;DHT22;4369;47.842;13.096;2023-05-23T09:18:28;20.50;1.00
8664;DHT22;4369;47.842;13.096;2023-05-23T09:20:58;20.60;1.00
8664;DHT22;4369;47.842;13.096;2023-05-23T09:23:25;20.60;1.00
8664;DHT22;4369;47.842;13.096;2023-05-23T09:25:54;20.70;1.00
8664;DHT22;4369;47.842;13.096;2023-05-23T09:28:21;20.60;99.90
8664;DHT22;4369;47.842;13.096;2023-05-23T09:30:57;20.70;1.00
8664;DHT22;4369;47.842;13.096;2023-05-23T09:33:28;20.60;1.00
8664;DHT22;4369;47.842;13.096;2023-05-23T09:35:55;20.50;1.00
8664;DHT22;4369;47.842;13.096;2023-05-23T09:38:23;20.40;1.00
8664;DHT22;4369;47.842;13.096;2023-05-23T09:40:53;20.50;1.00
8664;DHT22;4369;47.842;13.096;2023-05-23T09:43:22;20.50;20.70
8664;DHT22;4369;47.842;13.096;2023-05-23T09:45:52;20.50;1.00
8664;DHT22;4369;47.842;13.096;2023-05-23T09:48:19;20.50;1.00
8664;DHT22;4369;47.842;13.096;2023-05-23T09:50:46;20.50;1.00
8664;DHT22;4369;47.842;13.096;2023-05-23T09:53:15;20.80;99.90
8664;DHT22;4369;47.842;13.096;2023-05-23T09:55:46;21.00;99.90
8664;DHT22;4369;47.842;13.096;2023-05-23T09:58:14;21.20;99.90
8664;DHT22;4369;47.842;13.096;2023-05-23T10:00:42;21.50;1.00
8664;DHT22;4369;47.842;13.096;2023-05-23T10:03:11;21.60;99.90
8664;DHT22;4369;47.842;13.096;2023-05-23T10:05:43;21.60;99.90
8664;DHT22;4369;47.842;13.096;2023-05-23T10:08:15;21.50;99.90
8664;DHT22;4369;47.842;13.096;2023-05-23T10:14:06;21.50;99.90
8664;DHT22;4369;47.842;13.096;2023-05-23T10:16:41;21.50;99.90
8664;DHT22;4369;47.842;13.096;2023-05-23T10:19:19;21.60;99.90
8664;DHT22;4369;47.842;13.096;2023-05-23T10:21:52;21.80;56.60
8664;DHT22;4369;47.842;13.096;2023-05-23T10:24:23;21.80;52.80
8664;DHT22;4369;47.842;13.096;2023-05-23T10:26:50;21.50;99.90
8664;DHT22;4369;47.842;13.096;2023-05-23T10:29:17;21.40;76.80
8664;DHT22;4369;47.842;13.096;2023-05-23T10:31:44;21.60;99.90
8664;DHT22;4369;47.842;13.096;2023-05-23T10:34:20;22.10;34.10
8664;DHT22;4369;47.842;13.096;2023-05-23T10:36:55;22.40;1.00
8664;DHT22;4369;47.842;13.096;2023-05-23T10:39:32;22.60;1.00
8664;DHT22;4369;47.842;13.096;2023-05-23T10:42:06;22.40;1.00
8664;DHT22;4369;47.842;13.096;2023-05-23T10:44:35;22.80;1.00
8664;DHT22;4369;47.842;13.096;2023-05-23T10:47:03;22.80;1.00
8664;DHT22;4369;47.842;13.096;2023-05-23T10:49:38;22.90;1.00
8664;DHT22;4369;47.842;13.096;2023-05-23T10:52:06;23.10;1.00
8664;DHT22;4369;47.842;13.096;2023-05-23T10:54:42;23.00;1.00
8664;DHT22;4369;47.842;13.096;2023-05-23T10:57:10;22.70;1.00
8664;DHT22;4369;47.842;13.096;2023-05-23T10:59:38;22.30;1.00
8664;DHT22;4369;47.842;13.096;2023-05-23T11:02:11;22.00;1.00
8664;DHT22;4369;47.842;13.096;2023-05-23T11:04:40;22.00;1.00
8664;DHT22;4369;47.842;13.096;2023-05-23T11:07:27;21.90;1.00
8664;DHT22;4369;47.842;13.096;2023-05-23T11:10:07;21.80;1.00
8664;DHT22;4369;47.842;13.096;2023-05-23T11:12:39;21.90;1.00
8664;DHT22;4369;47.842;13.096;2023-05-23T11:15:19;22.20;1.00
8664;DHT22;4369;47.842;13.096;2023-05-23T11:17:50;22.40;1.00
8664;DHT22;4369;47.842;13.096;2023-05-23T11:20:22;22.60;1.00
8664;DHT22;4369;47.842;13.096;2023-05-23T11:22:58;22.80;1.00
8664;DHT22;4369;47.842;13.096;2023-05-23T11:25:39;22.40;1.00
8664;DHT22;4369;47.842;13.096;2023-05-23T11:28:07;22.10;1.00
8664;DHT22;4369;47.842;13.096;2023-05-23T11:30:35;22.60;1.00
8664;DHT22;4369;47.842;13.096;2023-05-23T11:33:06;22.50;1.00
8664;DHT22;4369;47.842;13.096;2023-05-23T11:35:36;22.50;1.00
8664;DHT22;4369;47.842;13.096;2023-05-23T11:38:03;22.50;1.00
8664;DHT22;4369;47.842;13.096;2023-05-23T11:40:31;22.20;1.00
8664;DHT22;4369;47.842;13.096;2023-05-23T11:43:00;22.10;1.00
8664;DHT22;4369;47.842;13.096;2023-05-23T11:45:29;22.20;1.00
8664;DHT22;4369;47.842;13.096;2023-05-23T11:48:07;22.00;1.00
8664;DHT22;4369;47.842;13.096;2023-05-23T11:50:43;21.80;1.00
8664;DHT22;4369;47.842;13.096;2023-05-23T11:53:11;21.60;1.00
8664;DHT22;4369;47.842;13.096;2023-05-23T11:55:39;21.40;1.00
8664;DHT22;4369;47.842;13.096;2023-05-23T11:58:06;21.50;99.90
8664;DHT22;4369;47.842;13.096;2023-05-23T12:00:33;21.80;99.90
8664;DHT22;4369;47.842;13.096;2023-05-23T12:03:05;21.80;99.90
8664;DHT22;4369;47.842;13.096;2023-05-23T12:05:33;21.70;1.00
8664;DHT22;4369;47.842;13.096;2023-05-23T12:08:01;21.70;1.00
8664;DHT22;4369;47.842;13.096;2023-05-23T12:10:28;21.60;99.90
8664;DHT22;4369;47.842;13.096;2023-05-23T12:12:55;21.40;74.30
8664;DHT22;4369;47.842;13.096;2023-05-23T12:15:25;21.30;1.00
8664;DHT22;4369;47.842;13.096;2023-05-23T12:17:53;21.30;39.10
8664;DHT22;4369;47.842;13.096;2023-05-23T12:20:20;21.20;1.00
8664;DHT22;4369;47.842;13.096;2023-05-23T12:22:47;21.40;99.90
8664;DHT22;4369;47.842;13.096;2023-05-23T12:25:16;21.40;1.00
8664;DHT22;4369;47.842;13.096;2023-05-23T12:27:43;21.30;1.00
8664;DHT22;4369;47.842;13.096;2023-05-23T12:30:13;21.20;99.90
8664;DHT22;4369;47.842;13.096;2023-05-23T12:32:41;21.30;99.90
8664;DHT22;4369;47.842;13.096;2023-05-23T12:35:09;21.30;1.00
8664;DHT22;4369;47.842;13.096;2023-05-23T12:37:38;21.20;99.90
8664;DHT22;4369;47.842;13.096;2023-05-23T12:40:10;21.10;1.00
8664;DHT22;4369;47.842;13.096;2023-05-23T12:42:50;21.30;1.00
8664;DHT22;4369;47.842;13.096;2023-05-23T12:45:18;21.10;99.90
8664;DHT22;4369;47.842;13.096;2023-05-23T12:47:45;21.30;99.90
8664;DHT22;4369;47.842;13.096;2023-05-23T12:50:12;21.20;1.00
8664;DHT22;4369;47.842;13.096;2023-05-23T12:52:39;21.20;99.90
8664;DHT22;4369;47.842;13.096;2023-05-23T12:55:06;21.30;99.90
8664;DHT22;4369;47.842;13.096;2023-05-23T12:57:34;21.50;1.00
8664;DHT22;4369;47.842;13.096;2023-05-23T13:00:03;21.40;1.00
8664;DHT22;4369;47.842;13.096;2023-05-23T13:02:31;21.50;1.00
8664;DHT22;4369;47.842;13.096;2023-05-23T13:04:58;21.60;1.00
8664;DHT22;4369;47.842;13.096;2023-05-23T13:07:24;21.70;1.00
8664;DHT22;4369;47.842;13.096;2023-05-23T13:09:51;22.20;99.90
8664;DHT22;4369;47.842;13.096;2023-05-23T13:12:18;22.30;99.90
8664;DHT22;4369;47.842;13.096;2023-05-23T13:14:45;22.70;99.90
8664;DHT22;4369;47.842;13.096;2023-05-23T13:17:13;22.90;6.30
8664;DHT22;4369;47.842;13.096;2023-05-23T13:19:40;22.80;1.00
8664;DHT22;4369;47.842;13.096;2023-05-23T13:22:08;22.80;1.00
8664;DHT22;4369;47.842;13.096;2023-05-23T13:24:36;22.80;99.90
8664;DHT22;4369;47.842;13.096;2023-05-23T13:27:03;22.60;99.90
8664;DHT22;4369;47.842;13.096;2023-05-23T13:29:30;22.40;99.90
8664;DHT22;4369;47.842;13.096;2023-05-23T13:31:57;22.10;99.90
8664;DHT22;4369;47.842;13.096;2023-05-23T13:34:26;22.00;99.90
8664;DHT22;4369;47.842;13.096;2023-05-23T13:36:53;22.30;1.00
8664;DHT22;4369;47.842;13.096;2023-05-23T13:39:20;22.90;99.90
8664;DHT22;4369;47.842;13.096;2023-05-23T13:41:48;23.70;1.00
8664;DHT22;4369;47.842;13.096;2023-05-23T13:44:14;24.70;1.00
8664;DHT22;4369;47.842;13.096;2023-05-23T13:46:42;25.60;1.00
8664;DHT22;4369;47.842;13.096;2023-05-23T13:49:09;25.90;1.00
8664;DHT22;4369;47.842;13.096;2023-05-23T13:51:37;25.30;1.00
8664;DHT22;4369;47.842;13.096;2023-05-23T13:54:04;24.40;1.00
8664;DHT22;4369;47.842;13.096;2023-05-23T13:56:31;23.40;1.00
8664;DHT22;4369;47.842;13.096;2023-05-23T13:58:59;23.30;1.00
8664;DHT22;4369;47.842;13.096;2023-05-23T14:01:26;23.30;1.00
8664;DHT22;4369;47.842;13.096;2023-05-23T14:03:53;23.20;1.00
8664;DHT22;4369;47.842;13.096;2023-05-23T14:06:21;24.50;1.00
8664;DHT22;4369;47.842;13.096;2023-05-23T14:08:49;25.50;1.00
8664;DHT22;4369;47.842;13.096;2023-05-23T14:11:16;25.30;1.00
8664;DHT22;4369;47.842;13.096;2023-05-23T14:13:42;24.10;1.00
8664;DHT22;4369;47.842;13.096;2023-05-23T14:16:09;23.30;1.00
8664;DHT22;4369;47.842;13.096;2023-05-23T14:18:36;22.90;1.00
8664;DHT22;4369;47.842;13.096;2023-05-23T14:21:03;22.80;1.00
8664;DHT22;4369;47.842;13.096;2023-05-23T14:23:30;22.80;1.00
8664;DHT22;4369;47.842;13.096;2023-05-23T14:25:58;22.90;1.00
8664;DHT22;4369;47.842;13.096;2023-05-23T14:28:25;23.00;1.00
8664;DHT22;4369;47.842;13.096;2023-05-23T14:30:52;23.20;1.00
8664;DHT22;4369;47.842;13.096;2023-05-23T14:33:20;23.60;1.00
8664;DHT22;4369;47.842;13.096;2023-05-23T14:35:47;23.90;1.00
8664;DHT22;4369;47.842;13.096;2023-05-23T14:38:14;24.10;1.00
8664;DHT22;4369;47.842;13.096;2023-05-23T14:40:41;24.50;1.00
8664;DHT22;4369;47.842;13.096;2023-05-23T14:43:09;25.00;1.00
8664;DHT22;4369;47.842;13.096;2023-05-23T14:45:36;24.90;1.00
8664;DHT22;4369;47.842;13.096;2023-05-23T14:48:04;24.60;1.00
8664;DHT22;4369;47.842;13.096;2023-05-23T14:50:31;24.60;1.00
8664;DHT22;4369;47.842;13.096;2023-05-23T14:52:58;24.50;1.00
8664;DHT22;4369;47.842;13.096;2023-05-23T14:55:25;24.50;1.00
8664;DHT22;4369;47.842;13.096;2023-05-23T14:57:52;24.30;1.00
8664;DHT22;4369;47.842;13.096;2023-05-23T15:00:20;24.30;1.00
8664;DHT22;4369;47.842;13.096;2023-05-23T15:02:47;24.30;1.00
8664;DHT22;4369;47.842;13.096;2023-05-23T15:05:14;24.10;1.00
8664;DHT22;4369;47.842;13.096;2023-05-23T15:07:41;24.00;1.00
8664;DHT22;4369;47.842;13.096;2023-05-23T15:10:08;23.90;1.00
8664;DHT22;4369;47.842;13.096;2023-05-23T15:12:35;23.50;1.00
8664;DHT22;4369;47.842;13.096;2023-05-23T15:15:03;23.00;1.00
8664;DHT22;4369;47.842;13.096;2023-05-23T15:17:32;22.60;1.00
8664;DHT22;4369;47.842;13.096;2023-05-23T15:19:59;22.40;1.00
8664;DHT22;4369;47.842;13.096;2023-05-23T15:22:26;22.30;1.00
8664;DHT22;4369;47.842;13.096;2023-05-23T15:24:53;22.30;1.00
8664;DHT22;4369;47.842;13.096;2023-05-23T15:27:19;22.20;1.00
8664;DHT22;4369;47.842;13.096;2023-05-23T15:29:47;22.10;1.00
8664;DHT22;4369;47.842;13.096;2023-05-23T15:32:14;21.90;1.00
8664;DHT22;4369;47.842;13.096;2023-05-23T15:34:42;21.70;93.30
8664;DHT22;4369;47.842;13.096;2023-05-23T15:37:09;21.50;99.90
8664;DHT22;4369;47.842;13.096;2023-05-23T15:39:36;21.10;99.90
8664;DHT22;4369;47.842;13.096;2023-05-23T15:42:04;21.00;99.90
8664;DHT22;4369;47.842;13.096;2023-05-23T15:44:31;20.70;99.90
8664;DHT22;4369;47.842;13.096;2023-05-23T15:46:57;20.50;99.90
8664;DHT22;4369;47.842;13.096;2023-05-23T15:49:24;20.40;99.90
8664;DHT22;4369;47.842;13.096;2023-05-23T15:51:53;20.20;99.90
8664;DHT22;4369;47.842;13.096;2023-05-23T15:54:20;20.00;99.90
8664;DHT22;4369;47.842;13.096;2023-05-23T15:56:47;19.90;1.00
8664;DHT22;4369;47.842;13.096;2023-05-23T15:59:14;19.70;1.00
8664;DHT22;4369;47.842;13.096;2023-05-23T16:01:41;19.60;1.00
8664;DHT22;4369;47.842;13.096;2023-05-23T16:04:08;19.50;99.90